Time;durP1;ratioP1;P1;durP2;ratioP2;P2;SDS_P1;SDS_P2;PMS_P1;PMS_P2;Temp;Humidity;BMP_temperature;BMP_pressure;BME280_temperature;BME280_humidity;BME280_pressure;Samples;Min_cycle;Max_cycle;Signal;HPM_P1;HPM_P2
2023/03/31 00:02:13;;;;;;;10.63;3.13;;;10.40;99.90;;;;;;5058400;28;20868;-65
2023/03/31 00:04:44;;;;;;;7.50;3.07;;;10.40;99.90;;;;;;5058926;28;20462;-64
2023/03/31 00:07:13;;;;;;;7.63;2.63;;;10.40;99.90;;;;;;5058376;28;20900;-65
2023/03/31 00:09:44;;;;;;;4.90;2.70;;;10.30;99.90;;;;;;5058720;28;20528;-65
2023/03/31 00:12:13;;;;;;;7.30;3.27;;;10.30;99.90;;;;;;5058275;28;20572;-65
2023/03/31 00:14:41;;;;;;;8.07;2.80;;;10.20;99.90;;;;;;5058670;28;20469;-65
2023/03/31 00:17:08;;;;;;;4.33;2.80;;;10.30;99.90;;;;;;5057923;28;20776;-65
2023/03/31 00:19:36;;;;;;;10.10;2.60;;;10.30;99.90;;;;;;5057958;28;20469;-65
2023/03/31 00:22:04;;;;;;;5.23;2.40;;;10.30;99.90;;;;;;5057660;28;20462;-65
2023/03/31 00:24:31;;;;;;;5.53;2.47;;;10.30;99.90;;;;;;5057615;28;20441;-64
2023/03/31 00:26:59;;;;;;;4.97;2.50;;;10.20;99.90;;;;;;5058114;28;20461;-64
2023/03/31 00:29:28;;;;;;;5.63;2.90;;;10.30;99.90;;;;;;5057938;28;20903;-64
2023/03/31 00:31:55;;;;;;;6.97;2.60;;;10.30;99.90;;;;;;5057236;28;20467;-64
2023/03/31 00:34:22;;;;;;;6.90;2.93;;;10.40;99.90;;;;;;5058160;28;20768;-64
2023/03/31 00:36:49;;;;;;;5.80;2.90;;;10.40;99.90;;;;;;5057612;28;20490;-64
2023/03/31 00:39:18;;;;;;;5.23;2.70;;;10.40;99.90;;;;;;5058113;28;20909;-64
2023/03/31 00:41:46;;;;;;;4.53;2.93;;;10.40;99.90;;;;;;5057780;28;20740;-64
2023/03/31 00:44:17;;;;;;;5.87;2.23;;;10.40;99.90;;;;;;5057862;28;20705;-65
2023/03/31 00:46:54;;;;;;;8.20;2.50;;;10.50;99.90;;;;;;5057860;28;20519;-68
2023/03/31 00:49:27;;;;;;;8.93;3.00;;;10.40;99.90;;;;;;5058004;28;20809;-62
2023/03/31 00:51:57;;;;;;;7.20;3.47;;;10.40;1.00;;;;;;5057840;28;20741;-61
2023/03/31 00:54:29;;;;;;;5.83;2.50;;;10.20;1.00;;;;;;5057585;28;20462;-61
2023/03/31 00:57:01;;;;;;;7.13;2.70;;;10.20;1.00;;;;;;5057867;28;20513;-61
2023/03/31 00:59:32;;;;;;;6.87;3.10;;;10.10;1.00;;;;;;5057250;28;20441;-61
2023/03/31 01:02:06;;;;;;;9.07;3.50;;;10.00;1.00;;;;;;5057021;28;20462;-62
2023/03/31 01:04:37;;;;;;;5.83;2.83;;;10.00;99.90;;;;;;5057970;28;20908;-61
2023/03/31 01:07:12;;;;;;;7.80;3.00;;;9.90;99.90;;;;;;5058062;28;20466;-61
2023/03/31 01:09:40;;;;;;;8.10;2.90;;;9.90;99.90;;;;;;5057168;28;20440;-61
2023/03/31 01:12:09;;;;;;;8.57;3.20;;;9.90;1.00;;;;;;5057445;28;20459;-62
2023/03/31 01:14:36;;;;;;;5.90;2.97;;;9.90;99.90;;;;;;5057098;28;20557;-62
2023/03/31 01:17:08;;;;;;;5.67;2.90;;;9.90;13.40;;;;;;5056899;28;20439;-60
2023/03/31 01:19:56;;;;;;;6.30;3.07;;;9.90;1.00;;;;;;5056661;28;20617;-61
2023/03/31 01:23:08;;;;;;;6.10;2.90;;;9.90;99.90;;;;;;5057253;28;20462;-61
2023/03/31 01:26:08;;;;;;;8.27;3.10;;;9.80;1.00;;;;;;5056909;28;20462;-62
2023/03/31 01:28:40;;;;;;;8.90;3.43;;;9.90;99.90;;;;;;5057364;28;20775;-63
2023/03/31 01:31:36;;;;;;;10.30;3.27;;;9.90;99.90;;;;;;5057796;28;20540;-65
2023/03/31 01:34:39;;;;;;;4.43;2.13;;;9.90;99.90;;;;;;5057452;28;20949;-65
2023/03/31 01:37:39;;;;;;;5.70;2.83;;;9.90;99.90;;;;;;5056966;28;20795;-65
2023/03/31 01:40:30;;;;;;;11.13;4.10;;;9.90;99.90;;;;;;5058131;28;20880;-65
2023/03/31 01:43:02;;;;;;;4.70;2.40;;;9.90;99.90;;;;;;5057336;28;20467;-65
2023/03/31 01:45:44;;;;;;;6.63;2.63;;;9.90;99.90;;;;;;5057218;28;20437;-64
2023/03/31 01:48:16;;;;;;;4.80;2.80;;;9.90;99.90;;;;;;5057008;28;20926;-65
2023/03/31 01:50:46;;;;;;;8.37;3.10;;;9.80;99.90;;;;;;5057254;28;20465;-63
2023/03/31 01:53:20;;;;;;;7.63;3.57;;;9.80;99.90;;;;;;5056559;28;20486;-65
2023/03/31 01:55:58;;;;;;;9.33;3.60;;;9.80;99.90;;;;;;5056490;28;20468;-64
2023/03/31 01:58:31;;;;;;;7.70;3.30;;;9.80;99.90;;;;;;5057158;28;20553;-64
2023/03/31 02:01:03;;;;;;;7.20;3.43;;;9.80;99.90;;;;;;5057174;28;20953;-63
2023/03/31 02:03:35;;;;;;;7.57;3.43;;;9.80;99.90;;;;;;5056618;28;20463;-64
2023/03/31 02:06:09;;;;;;;7.23;3.30;;;9.80;99.90;;;;;;5056760;28;20882;-64
2023/03/31 02:08:42;;;;;;;5.90;3.00;;;9.90;99.90;;;;;;5056760;28;20450;-63
2023/03/31 02:11:12;;;;;;;8.13;2.90;;;9.90;99.90;;;;;;5056513;28;20476;-63
2023/03/31 02:13:43;;;;;;;5.30;2.80;;;9.90;99.90;;;;;;5056123;28;20496;-63
2023/03/31 02:16:15;;;;;;;4.63;3.10;;;9.80;99.90;;;;;;5056960;28;20492;-62
2023/03/31 02:18:44;;;;;;;9.37;3.20;;;9.80;99.90;;;;;;5057122;28;20917;-63
2023/03/31 02:21:13;;;;;;;6.03;2.90;;;9.90;99.90;;;;;;5056184;28;20462;-62
2023/03/31 02:23:40;;;;;;;8.40;3.13;;;9.90;99.90;;;;;;5056861;28;20489;-62
2023/03/31 02:26:13;;;;;;;7.47;3.40;;;9.80;99.90;;;;;;5056292;28;20742;-63
2023/03/31 02:28:41;;;;;;;6.33;2.63;;;9.80;99.90;;;;;;5056925;28;20911;-61
2023/03/31 02:31:17;;;;;;;11.83;3.60;;;9.80;99.90;;;;;;5058250;28;20466;-62
2023/03/31 02:33:44;;;;;;;8.93;3.47;;;9.80;99.90;;;;;;5060194;28;20968;-62
2023/03/31 02:36:11;;;;;;;9.30;3.23;;;9.80;99.90;;;;;;5060347;28;20477;-63
2023/03/31 02:38:43;;;;;;;9.20;3.40;;;9.80;99.90;;;;;;5060303;28;20489;-63
2023/03/31 02:41:12;;;;;;;6.50;2.60;;;9.80;99.90;;;;;;5060108;28;20462;-63
2023/03/31 02:43:39;;;;;;;9.97;3.20;;;9.80;99.90;;;;;;5060136;28;20463;-63
2023/03/31 02:46:07;;;;;;;6.60;3.03;;;9.90;99.90;;;;;;5059972;28;20466;-63
2023/03/31 02:48:37;;;;;;;8.20;2.93;;;9.80;99.90;;;;;;5060462;28;20476;-63
2023/03/31 02:51:33;;;;;;;7.37;3.03;;;9.80;99.90;;;;;;5059859;28;20461;-62
2023/03/31 02:54:16;;;;;;;10.73;3.90;;;9.90;99.90;;;;;;5050745;28;20494;-63
2023/03/31 02:57:11;;;;;;;8.70;2.97;;;9.90;99.90;;;;;;5060018;28;20462;-63
2023/03/31 02:59:49;;;;;;;9.03;3.53;;;9.80;99.90;;;;;;5059637;28;20437;-64
2023/03/31 03:02:24;;;;;;;11.30;3.60;;;9.90;99.90;;;;;;5059564;28;20472;-64
2023/03/31 03:05:18;;;;;;;7.00;3.30;;;9.80;99.90;;;;;;5059827;28;20961;-64
2023/03/31 03:07:51;;;;;;;6.47;3.10;;;9.80;99.90;;;;;;5056394;28;20465;-64
2023/03/31 03:10:25;;;;;;;11.50;4.03;;;9.80;99.90;;;;;;5059923;28;20458;-64
2023/03/31 03:13:02;;;;;;;9.53;3.50;;;9.80;99.90;;;;;;5059569;28;20500;-63
2023/03/31 03:15:33;;;;;;;7.13;3.00;;;9.80;99.90;;;;;;5059436;28;20895;-62
2023/03/31 03:18:02;;;;;;;10.13;3.50;;;9.80;99.90;;;;;;5059393;28;20753;-63
2023/03/31 03:20:32;;;;;;;9.00;3.07;;;9.80;99.90;;;;;;5058985;28;20465;-63
2023/03/31 03:23:00;;;;;;;6.67;3.33;;;9.80;99.90;;;;;;5058731;28;20450;-63
2023/03/31 03:25:29;;;;;;;8.47;4.13;;;9.80;99.90;;;;;;5058929;28;20458;-64
2023/03/31 03:27:59;;;;;;;8.70;4.60;;;9.80;99.90;;;;;;5058870;28;20462;-65
2023/03/31 03:30:26;;;;;;;11.13;3.53;;;9.70;99.90;;;;;;5059687;28;20462;-66
2023/03/31 03:32:57;;;;;;;10.33;3.23;;;9.70;99.90;;;;;;5059189;28;20571;-66
2023/03/31 03:35:24;;;;;;;9.70;3.60;;;9.70;99.90;;;;;;5058581;28;20462;-67
2023/03/31 03:37:52;;;;;;;5.80;2.57;;;9.70;99.90;;;;;;5058615;28;20486;-66
2023/03/31 03:40:19;;;;;;;11.10;3.60;;;9.70;99.90;;;;;;5059568;28;20458;-66
2023/03/31 03:42:47;;;;;;;7.53;3.60;;;9.70;99.90;;;;;;5058087;28;20444;-66
2023/03/31 03:45:15;;;;;;;10.17;3.80;;;9.70;99.90;;;;;;5059286;28;20468;-65
2023/03/31 03:47:42;;;;;;;10.17;3.93;;;9.70;99.90;;;;;;5059066;28;20545;-65
2023/03/31 03:50:12;;;;;;;7.73;3.13;;;9.70;99.90;;;;;;5058584;28;20507;-65
2023/03/31 03:52:40;;;;;;;9.37;4.23;;;9.70;99.90;;;;;;5058882;28;20469;-65
2023/03/31 03:55:07;;;;;;;11.13;3.60;;;9.70;99.90;;;;;;5058723;28;20759;-65
2023/03/31 03:57:35;;;;;;;11.20;3.33;;;9.60;99.90;;;;;;5058466;28;20561;-65
2023/03/31 04:00:06;;;;;;;4.70;2.47;;;9.70;99.90;;;;;;5058451;28;20483;-64
2023/03/31 04:02:35;;;;;;;8.60;3.57;;;9.70;99.90;;;;;;5059032;28;20436;-65
2023/03/31 04:05:04;;;;;;;9.50;3.30;;;9.70;99.90;;;;;;5058655;28;20748;-65
2023/03/31 04:07:31;;;;;;;10.13;3.10;;;9.70;99.90;;;;;;5058238;28;20458;-65
2023/03/31 04:09:59;;;;;;;10.47;3.60;;;9.70;99.90;;;;;;5058676;28;20477;-65
2023/03/31 04:12:26;;;;;;;7.47;3.33;;;9.70;99.90;;;;;;5058699;28;20462;-66
2023/03/31 04:14:53;;;;;;;9.53;3.27;;;9.70;99.90;;;;;;5057863;28;20494;-65
2023/03/31 04:17:31;;;;;;;17.10;5.50;;;9.70;99.90;;;;;;5058556;28;20463;-65
2023/03/31 04:20:03;;;;;;;10.13;3.60;;;9.80;99.90;;;;;;5058382;28;20540;-67
2023/03/31 04:22:34;;;;;;;10.60;3.47;;;9.80;99.90;;;;;;5058236;28;20468;-67
2023/03/31 04:25:02;;;;;;;8.47;3.20;;;9.70;99.90;;;;;;5057269;28;20732;-67
2023/03/31 04:27:29;;;;;;;12.30;3.53;;;9.70;99.90;;;;;;5038397;28;20473;-67
2023/03/31 04:29:57;;;;;;;10.37;4.20;;;9.70;99.90;;;;;;5038091;28;20566;-67
2023/03/31 04:32:24;;;;;;;14.00;3.63;;;9.70;99.90;;;;;;5038168;28;20474;-67
2023/03/31 04:35:01;;;;;;;8.00;3.40;;;9.80;99.90;;;;;;5038352;28;20498;-67
2023/03/31 04:37:33;;;;;;;6.97;4.67;;;9.80;99.90;;;;;;5037988;28;20625;-67
2023/03/31 04:40:07;;;;;;;11.57;4.30;;;9.70;99.90;;;;;;5037862;28;20442;-65
2023/03/31 04:42:34;;;;;;;12.67;3.60;;;9.70;99.90;;;;;;5038161;28;20520;-67
2023/03/31 04:45:02;;;;;;;9.03;3.40;;;9.70;99.90;;;;;;5040071;28;20463;-67
2023/03/31 04:47:29;;;;;;;7.83;3.83;;;9.70;99.90;;;;;;5036793;28;20459;-65
2023/03/31 04:49:56;;;;;;;9.30;4.20;;;9.70;99.90;;;;;;5036233;28;20459;-65
2023/03/31 04:52:23;;;;;;;13.17;3.90;;;9.60;99.90;;;;;;5036851;28;20470;-62
2023/03/31 04:54:52;;;;;;;10.97;3.50;;;9.60;99.90;;;;;;5040855;28;20766;-64
2023/03/31 04:57:19;;;;;;;5.57;3.43;;;9.60;99.90;;;;;;5054794;28;20436;-61
2023/03/31 04:59:46;;;;;;;12.90;3.30;;;9.60;99.90;;;;;;5054694;28;20469;-60
2023/03/31 05:02:14;;;;;;;6.10;3.20;;;9.60;99.90;;;;;;5054997;28;20472;-62
2023/03/31 05:04:41;;;;;;;8.97;3.70;;;9.60;99.90;;;;;;5055656;28;20782;-61
2023/03/31 05:07:08;;;;;;;7.77;3.40;;;9.60;99.90;;;;;;5055885;28;20436;-60
2023/03/31 05:09:35;;;;;;;7.23;4.07;;;9.60;99.90;;;;;;5052920;28;20913;-64
2023/03/31 05:12:04;;;;;;;10.67;3.33;;;9.60;99.90;;;;;;5055547;28;20437;-65
2023/03/31 05:14:31;;;;;;;6.07;3.73;;;9.50;99.90;;;;;;5055680;28;20973;-66
2023/03/31 05:16:59;;;;;;;7.00;3.07;;;9.50;99.90;;;;;;5054901;28;20436;-65
2023/03/31 05:19:26;;;;;;;17.53;4.73;;;9.50;99.90;;;;;;5055617;28;20463;-66
2023/03/31 05:21:53;;;;;;;12.80;3.60;;;9.50;99.90;;;;;;5055492;28;20914;-66
2023/03/31 05:24:21;;;;;;;6.40;3.40;;;9.50;99.90;;;;;;5054903;28;20462;-66
2023/03/31 05:26:51;;;;;;;10.50;3.33;;;9.50;99.90;;;;;;5054237;28;20537;-66
2023/03/31 05:29:20;;;;;;;8.83;2.97;;;9.40;99.90;;;;;;5056000;28;20465;-65
2023/03/31 05:31:47;;;;;;;10.33;3.80;;;9.40;99.90;;;;;;5054692;28;20861;-66
2023/03/31 05:34:15;;;;;;;8.13;3.47;;;9.40;99.90;;;;;;5050898;28;20483;-63
2023/03/31 05:36:43;;;;;;;5.30;3.17;;;9.40;99.90;;;;;;5037298;28;20469;-65
2023/03/31 05:39:10;;;;;;;13.60;3.87;;;9.30;99.90;;;;;;5037070;28;20467;-64
2023/03/31 05:41:37;;;;;;;7.90;3.60;;;9.30;99.90;;;;;;5036810;28;20466;-65
2023/03/31 05:44:05;;;;;;;6.17;3.63;;;9.40;99.90;;;;;;5036895;28;20455;-65
2023/03/31 05:46:33;;;;;;;6.33;3.00;;;9.40;99.90;;;;;;5037584;28;20462;-62
2023/03/31 05:49:01;;;;;;;10.10;3.27;;;9.40;99.90;;;;;;5036858;28;20566;-64
2023/03/31 05:51:29;;;;;;;5.00;2.80;;;9.40;99.90;;;;;;5036689;28;20502;-64
2023/03/31 05:53:56;;;;;;;4.83;3.17;;;9.40;99.90;;;;;;5036576;28;20466;-64
2023/03/31 05:56:23;;;;;;;6.03;3.30;;;9.40;99.90;;;;;;5037192;28;20459;-65
2023/03/31 05:58:51;;;;;;;5.80;3.67;;;9.40;99.90;;;;;;5037142;28;20886;-65
2023/03/31 06:01:21;;;;;;;8.00;4.10;;;9.40;99.90;;;;;;5037164;28;20490;-65
2023/03/31 06:03:50;;;;;;;20.43;11.27;;;9.40;99.90;;;;;;5036776;28;20463;-65
2023/03/31 06:06:18;;;;;;;20.57;15.93;;;9.40;99.90;;;;;;5040741;28;20441;-64
2023/03/31 06:08:47;;;;;;;8.13;3.67;;;9.40;99.90;;;;;;5059317;28;20515;-66
2023/03/31 06:11:18;;;;;;;7.57;3.73;;;9.40;99.90;;;;;;5061020;28;20743;-64
2023/03/31 06:13:46;;;;;;;11.20;3.80;;;9.40;99.90;;;;;;5058929;28;20540;-62
2023/03/31 06:16:15;;;;;;;13.47;3.50;;;9.40;99.90;;;;;;5059066;28;20462;-62
2023/03/31 06:18:42;;;;;;;7.83;3.47;;;9.40;99.90;;;;;;5059414;28;20458;-62
2023/03/31 06:21:13;;;;;;;8.07;3.30;;;9.40;99.90;;;;;;5058769;28;20457;-61
2023/03/31 06:23:43;;;;;;;7.77;2.93;;;9.40;99.90;;;;;;5058478;28;20458;-61
2023/03/31 06:26:14;;;;;;;6.57;3.40;;;9.40;99.90;;;;;;5059187;28;20875;-61
2023/03/31 06:28:41;;;;;;;9.90;3.10;;;9.40;99.90;;;;;;5059335;28;20450;-60
2023/03/31 06:31:11;;;;;;;4.30;3.20;;;9.40;99.90;;;;;;5059017;28;20454;-58
2023/03/31 06:33:39;;;;;;;8.17;3.50;;;9.30;99.90;;;;;;5058570;28;20480;-58
2023/03/31 06:36:06;;;;;;;7.17;3.63;;;9.30;99.90;;;;;;5056043;28;20484;-59
2023/03/31 06:38:37;;;;;;;5.73;3.63;;;9.30;99.90;;;;;;5058732;28;20784;-56
2023/03/31 06:41:04;;;;;;;7.90;3.10;;;9.30;99.90;;;;;;5059190;28;20454;-60
2023/03/31 06:43:32;;;;;;;5.60;3.40;;;9.30;99.90;;;;;;5058413;28;20454;-58
2023/03/31 06:45:59;;;;;;;5.63;3.20;;;9.30;99.90;;;;;;5058515;28;20450;-58
2023/03/31 06:48:27;;;;;;;8.63;3.50;;;9.30;99.90;;;;;;5058609;28;20877;-59
2023/03/31 06:50:54;;;;;;;6.07;2.33;;;9.30;99.90;;;;;;5058986;28;20429;-60
2023/03/31 06:53:22;;;;;;;4.70;3.23;;;9.30;99.90;;;;;;5058076;28;20457;-62
2023/03/31 06:55:50;;;;;;;5.40;2.67;;;9.20;99.90;;;;;;5058154;28;20489;-63
2023/03/31 06:58:18;;;;;;;4.47;2.47;;;9.20;99.90;;;;;;5058783;28;20468;-61
2023/03/31 07:00:45;;;;;;;7.23;2.90;;;9.20;99.90;;;;;;5055762;28;20450;-61
2023/03/31 07:03:13;;;;;;;9.50;3.60;;;9.20;99.90;;;;;;5058933;28;20772;-62
2023/03/31 07:05:40;;;;;;;9.53;2.87;;;9.20;99.90;;;;;;5059431;28;20454;-58
2023/03/31 07:08:07;;;;;;;3.97;2.43;;;9.30;99.90;;;;;;5059583;28;20470;-61
2023/03/31 07:10:35;;;;;;;4.80;2.60;;;9.20;99.90;;;;;;5059845;28;20553;-60
2023/03/31 07:13:03;;;;;;;6.10;2.10;;;9.20;99.90;;;;;;5058221;28;20486;-61
2023/03/31 07:15:30;;;;;;;5.57;2.57;;;9.20;99.90;;;;;;5053826;28;20508;-59
2023/03/31 07:18:00;;;;;;;7.87;2.57;;;9.20;99.90;;;;;;5055630;28;20458;-63
2023/03/31 07:20:28;;;;;;;6.10;2.20;;;9.10;99.90;;;;;;5058096;28;20448;-64
2023/03/31 07:22:56;;;;;;;8.53;4.47;;;9.20;99.90;;;;;;5058143;28;20465;-63
2023/03/31 07:25:24;;;;;;;14.57;8.70;;;9.10;99.90;;;;;;5058084;28;20458;-63
2023/03/31 07:27:51;;;;;;;14.43;7.57;;;9.10;99.90;;;;;;5057759;28;20454;-64
2023/03/31 07:30:20;;;;;;;18.50;8.83;;;9.10;99.90;;;;;;5057993;28;20468;-63
2023/03/31 07:32:48;;;;;;;10.67;4.63;;;9.20;99.90;;;;;;5057688;28;20454;-64
2023/03/31 07:35:16;;;;;;;6.60;3.50;;;9.10;99.90;;;;;;5056843;28;20490;-63
2023/03/31 07:37:45;;;;;;;4.03;3.00;;;9.10;99.90;;;;;;5055677;28;20468;-64
2023/03/31 07:40:15;;;;;;;7.80;3.40;;;9.20;99.90;;;;;;5056151;28;20445;-56
2023/03/31 07:42:43;;;;;;;5.80;2.80;;;9.30;99.90;;;;;;5056629;28;20957;-61
2023/03/31 07:45:10;;;;;;;20.70;11.83;;;9.30;99.90;;;;;;5055952;28;20490;-62
2023/03/31 07:47:40;;;;;;;11.43;6.23;;;9.40;99.90;;;;;;5055749;28;20481;-62
2023/03/31 07:50:08;;;;;;;13.40;7.50;;;9.40;99.90;;;;;;5057848;28;20436;-62
2023/03/31 07:52:35;;;;;;;13.97;7.10;;;9.50;99.90;;;;;;5058035;28;20437;-62
2023/03/31 07:55:03;;;;;;;23.00;13.30;;;9.50;99.90;;;;;;5057888;28;20496;-62
2023/03/31 07:57:30;;;;;;;9.37;5.50;;;9.50;99.90;;;;;;5057667;28;20469;-63
2023/03/31 07:59:57;;;;;;;15.17;8.10;;;9.50;99.90;;;;;;5057700;28;20466;-53
2023/03/31 08:02:25;;;;;;;17.13;9.80;;;9.60;99.90;;;;;;5057135;28;20778;-63
2023/03/31 08:04:53;;;;;;;16.87;9.40;;;9.60;99.90;;;;;;5057511;28;20828;-62
2023/03/31 08:07:20;;;;;;;9.87;5.20;;;9.60;99.90;;;;;;5057106;28;20509;-61
2023/03/31 08:09:48;;;;;;;7.83;4.33;;;9.60;52.60;;;;;;5056175;28;20448;-58
2023/03/31 08:12:15;;;;;;;8.13;5.53;;;9.70;99.90;;;;;;5056050;28;20464;-60
2023/03/31 08:14:42;;;;;;;5.50;3.20;;;9.70;99.90;;;;;;5055540;28;20494;-58
2023/03/31 08:17:10;;;;;;;6.77;3.33;;;9.90;1.00;;;;;;5056526;28;20556;-54
2023/03/31 08:19:37;;;;;;;7.97;5.43;;;10.00;1.00;;;;;;5057134;28;20743;-62
2023/03/31 08:22:05;;;;;;;4.60;2.60;;;10.20;99.90;;;;;;5056644;28;20448;-60
2023/03/31 08:24:33;;;;;;;5.20;2.50;;;10.30;1.00;;;;;;5056232;28;20454;-61
2023/03/31 08:27:00;;;;;;;4.07;3.17;;;10.40;99.90;;;;;;5056643;28;20465;-55
2023/03/31 08:29:27;;;;;;;2.90;2.30;;;10.50;1.00;;;;;;5056681;28;20454;-60
2023/03/31 08:31:54;;;;;;;3.67;2.10;;;10.60;1.00;;;;;;5056371;28;20470;-59
2023/03/31 08:34:21;;;;;;;3.07;1.90;;;10.60;99.90;;;;;;5055917;28;20486;-62
2023/03/31 08:36:49;;;;;;;3.80;2.33;;;10.70;99.90;;;;;;5057398;28;20492;-61
2023/03/31 08:39:17;;;;;;;3.97;2.50;;;10.80;1.00;;;;;;5058402;28;20765;-63
2023/03/31 08:41:57;;;;;;;3.87;1.90;;;10.70;1.00;;;;;;5057781;28;20520;-62
2023/03/31 08:44:31;;;;;;;3.73;1.80;;;10.70;1.00;;;;;;5058197;28;20462;-60
2023/03/31 08:47:01;;;;;;;4.53;2.00;;;10.90;8.90;;;;;;5058282;28;20466;-56
2023/03/31 08:49:31;;;;;;;6.00;2.43;;;11.10;1.00;;;;;;5058205;28;20458;-57
2023/03/31 08:52:02;;;;;;;7.30;2.47;;;11.40;1.00;;;;;;5056292;28;20435;-59
2023/03/31 08:54:36;;;;;;;5.60;1.90;;;11.50;1.00;;;;;;5056919;28;20469;-62
2023/03/31 08:57:11;;;;;;;3.53;1.70;;;11.50;1.00;;;;;;5057053;28;20739;-60
2023/03/31 08:59:39;;;;;;;5.00;2.47;;;11.50;1.00;;;;;;5057511;28;20471;-60
2023/03/31 09:02:21;;;;;;;2.87;1.73;;;11.40;1.00;;;;;;5057352;28;20505;-63
2023/03/31 09:05:18;;;;;;;5.10;2.00;;;11.30;1.00;;;;;;5057613;28;20481;-59
2023/03/31 09:07:54;;;;;;;6.37;2.13;;;11.00;1.00;;;;;;5022774;28;20458;-58
2023/03/31 09:10:35;;;;;;;8.27;2.67;;;11.00;1.00;;;;;;5056237;28;20457;-62
2023/03/31 09:13:18;;;;;;;4.00;2.60;;;10.90;1.00;;;;;;5055921;28;20458;-63
2023/03/31 09:15:50;;;;;;;6.23;2.20;;;10.90;1.00;;;;;;5055685;28;20504;-63
2023/03/31 09:18:26;;;;;;;5.33;2.40;;;10.80;1.00;;;;;;5055827;28;20480;-60
2023/03/31 09:21:00;;;;;;;4.73;2.10;;;10.70;1.00;;;;;;5055088;28;20469;-63
2023/03/31 09:23:31;;;;;;;5.20;2.20;;;10.70;1.00;;;;;;5055091;28;20470;-63
2023/03/31 09:26:03;;;;;;;4.07;2.23;;;10.90;87.40;;;;;;5056580;28;20465;-62
2023/03/31 09:28:35;;;;;;;2.70;1.80;;;11.30;99.90;;;;;;5057096;28;20895;-62
2023/03/31 09:31:07;;;;;;;2.70;1.93;;;11.60;1.00;;;;;;5056399;28;20485;-56
2023/03/31 09:33:34;;;;;;;3.27;1.73;;;12.10;1.00;;;;;;5056326;28;20466;-62
2023/03/31 09:36:02;;;;;;;4.47;2.47;;;12.20;1.00;;;;;;5054490;28;20613;-58
2023/03/31 09:38:30;;;;;;;6.30;2.40;;;12.40;1.00;;;;;;5054630;28;20502;-61
2023/03/31 09:40:58;;;;;;;4.33;2.43;;;12.90;1.00;;;;;;5053727;28;20760;-61
2023/03/31 09:43:28;;;;;;;4.53;2.70;;;13.10;1.00;;;;;;5052535;28;20888;-61
2023/03/31 09:45:57;;;;;;;4.60;2.37;;;13.10;1.00;;;;;;5054129;28;20459;-60
2023/03/31 09:48:27;;;;;;;7.53;3.37;;;13.40;1.00;;;;;;5054238;28;20466;-62
2023/03/31 09:50:58;;;;;;;6.43;2.67;;;13.50;1.00;;;;;;5054725;28;20463;-62
2023/03/31 09:53:32;;;;;;;6.63;2.70;;;13.40;1.00;;;;;;5056674;28;20462;-61
2023/03/31 09:56:02;;;;;;;8.00;3.30;;;13.40;1.00;;;;;;5056844;28;20504;-58
2023/03/31 09:58:31;;;;;;;6.77;3.00;;;13.50;1.00;;;;;;5057246;28;20466;-60
2023/03/31 10:01:01;;;;;;;7.70;3.00;;;13.30;1.00;;;;;;5057027;28;20466;-60
2023/03/31 10:03:35;;;;;;;6.03;3.00;;;13.10;1.00;;;;;;5056522;28;20469;-59
2023/03/31 10:06:03;;;;;;;9.17;3.20;;;13.10;1.00;;;;;;5055722;28;20775;-61
2023/03/31 10:08:33;;;;;;;9.50;3.00;;;13.10;1.00;;;;;;5056696;28;20468;-61
2023/03/31 10:11:10;;;;;;;10.97;3.40;;;13.00;99.90;;;;;;5057111;28;20466;-61
2023/03/31 10:13:45;;;;;;;15.33;4.03;;;13.10;99.90;;;;;;5057023;28;20493;-62
2023/03/31 10:16:14;;;;;;;7.50;3.30;;;13.10;99.90;;;;;;5056383;28;20472;-61
2023/03/31 10:18:43;;;;;;;8.87;3.67;;;13.10;99.90;;;;;;5056779;28;20463;-59
2023/03/31 10:21:21;;;;;;;5.73;2.97;;;13.10;99.90;;;;;;5056831;28;20749;-62
2023/03/31 10:23:49;;;;;;;7.10;4.10;;;13.40;99.90;;;;;;5056447;28;20740;-60
2023/03/31 10:26:19;;;;;;;10.00;3.60;;;13.40;99.90;;;;;;5055368;28;20941;-61
2023/03/31 10:28:51;;;;;;;8.17;4.90;;;13.10;99.90;;;;;;5056170;28;20454;-62
2023/03/31 10:31:19;;;;;;;10.20;3.90;;;13.00;99.90;;;;;;5056429;28;20511;-63
2023/03/31 10:33:49;;;;;;;7.37;3.17;;;12.70;99.90;;;;;;5055716;28;20462;-67
2023/03/31 10:36:22;;;;;;;10.23;4.43;;;12.20;99.90;;;;;;5056695;28;20497;-62
2023/03/31 10:38:51;;;;;;;6.20;3.20;;;11.60;99.90;;;;;;5056872;28;20559;-64
2023/03/31 10:41:20;;;;;;;6.63;3.03;;;11.20;99.90;;;;;;5057412;28;20462;-65
2023/03/31 10:43:52;;;;;;;9.03;3.47;;;10.90;1.00;;;;;;5057307;28;20463;-65
2023/03/31 10:46:20;;;;;;;8.27;3.10;;;11.40;1.00;;;;;;5056800;28;20537;-64
2023/03/31 10:48:47;;;;;;;13.07;4.20;;;12.30;1.00;;;;;;5056795;28;20462;-62
2023/03/31 10:51:17;;;;;;;10.50;3.40;;;12.80;1.00;;;;;;5057296;28;20466;-62
2023/03/31 10:53:46;;;;;;;9.50;3.43;;;13.50;1.00;;;;;;5061492;28;20937;-61
2023/03/31 10:56:35;;;;;;;13.57;3.67;;;14.50;1.00;;;;;;5061158;28;20490;-60
2023/03/31 10:59:28;;;;;;;6.77;3.43;;;15.00;1.00;;;;;;5062104;28;20472;-62
2023/03/31 11:02:15;;;;;;;10.93;4.20;;;15.50;99.90;;;;;;5062519;28;20733;-62
2023/03/31 11:04:52;;;;;;;10.20;4.00;;;15.90;99.90;;;;;;5061700;28;20458;-62
2023/03/31 11:07:46;;;;;;;7.83;3.00;;;16.40;99.90;;;;;;5061950;28;20458;-62
2023/03/31 11:10:37;;;;;;;11.60;4.33;;;16.30;99.90;;;;;;5062028;28;20459;-62
2023/03/31 11:13:12;;;;;;;8.27;4.23;;;16.00;99.90;;;;;;5060391;28;20474;-63
2023/03/31 11:15:50;;;;;;;7.10;3.00;;;15.90;99.90;;;;;;5061334;28;20523;-61
2023/03/31 11:18:40;;;;;;;6.03;3.03;;;15.80;99.90;;;;;;5061111;28;20472;-62
2023/03/31 11:21:19;;;;;;;6.67;3.50;;;15.50;99.90;;;;;;5060088;28;20462;-63
2023/03/31 11:23:55;;;;;;;5.27;2.63;;;15.00;99.90;;;;;;5057113;28;20631;-65
2023/03/31 11:26:32;;;;;;;2.97;1.90;;;13.60;99.90;;;;;;5058381;28;20464;-63
2023/03/31 11:29:06;;;;;;;5.47;2.30;;;12.20;99.90;;;;;;5057698;28;20464;-64
2023/03/31 11:31:42;;;;;;;4.17;2.50;;;11.60;99.90;;;;;;5058455;28;20731;-62
2023/03/31 11:34:28;;;;;;;6.10;2.20;;;11.10;1.00;;;;;;5056958;28;20892;-64
2023/03/31 11:37:20;;;;;;;5.73;2.20;;;10.80;1.00;;;;;;5054557;28;20497;-65
2023/03/31 11:40:02;;;;;;;6.37;1.80;;;10.60;1.00;;;;;;5055884;28;20565;-66
2023/03/31 11:42:36;;;;;;;4.83;2.17;;;10.60;1.00;;;;;;5057486;28;20887;-66
2023/03/31 11:45:12;;;;;;;5.30;2.43;;;10.50;1.00;;;;;;5058184;28;20459;-63
2023/03/31 11:47:43;;;;;;;5.23;2.37;;;10.60;1.00;;;;;;5054705;28;20790;-65
2023/03/31 11:50:15;;;;;;;4.77;2.23;;;10.60;1.00;;;;;;5057340;28;20469;-66
2023/03/31 11:52:48;;;;;;;5.00;2.27;;;10.70;1.00;;;;;;5056759;28;20458;-65
2023/03/31 11:55:18;;;;;;;6.80;2.10;;;10.70;1.00;;;;;;5054579;28;20541;-63
2023/03/31 11:57:50;;;;;;;4.40;2.20;;;10.80;1.00;;;;;;5057657;28;20466;-64
2023/03/31 12:00:21;;;;;;;4.50;2.17;;;10.80;1.00;;;;;;5055685;28;20462;-64
2023/03/31 12:02:56;;;;;;;5.23;2.00;;;10.90;1.00;;;;;;5057529;28;20464;-66
2023/03/31 12:05:26;;;;;;;3.83;2.00;;;11.10;1.00;;;;;;5056306;28;20462;-66
2023/03/31 12:08:02;;;;;;;3.40;2.13;;;11.40;1.00;;;;;;5054956;28;20761;-65
2023/03/31 12:10:35;;;;;;;8.70;2.47;;;11.50;1.00;;;;;;5057372;28;20767;-65
2023/03/31 12:13:16;;;;;;;6.30;2.57;;;11.70;1.00;;;;;;5057469;28;20557;-65
2023/03/31 12:15:46;;;;;;;4.63;2.43;;;11.80;1.00;;;;;;5055548;28;20543;-65
2023/03/31 12:18:23;;;;;;;6.90;3.13;;;11.90;1.00;;;;;;5054300;28;20459;-65
2023/03/31 12:20:53;;;;;;;9.47;3.23;;;12.00;1.00;;;;;;5056493;28;20497;-64
2023/03/31 12:23:26;;;;;;;8.33;2.97;;;12.10;1.00;;;;;;5056858;28;20562;-64
2023/03/31 12:26:01;;;;;;;5.57;2.20;;;12.20;1.00;;;;;;5055459;28;20451;-63
2023/03/31 12:28:31;;;;;;;6.77;2.33;;;12.40;1.00;;;;;;5055027;28;20472;-63
2023/03/31 12:31:01;;;;;;;8.23;2.53;;;12.30;1.00;;;;;;5052975;28;20899;-63
2023/03/31 12:33:33;;;;;;;6.10;2.57;;;12.40;1.00;;;;;;5055645;28;20554;-63
2023/03/31 12:36:14;;;;;;;7.40;2.40;;;12.40;99.90;;;;;;5056043;28;20546;-62
2023/03/31 12:38:55;;;;;;;5.60;2.93;;;12.40;99.90;;;;;;5056558;28;20486;-62
2023/03/31 12:41:30;;;;;;;4.87;2.47;;;12.30;99.90;;;;;;5056370;28;20469;-63
2023/03/31 12:44:24;;;;;;;4.53;2.87;;;12.20;99.90;;;;;;5057427;28;20461;-64
2023/03/31 12:47:18;;;;;;;5.13;2.20;;;12.20;1.00;;;;;;5055729;28;20459;-65
2023/03/31 12:50:00;;;;;;;4.67;2.60;;;12.20;1.00;;;;;;5049844;28;20470;-65
2023/03/31 12:52:39;;;;;;;5.33;3.07;;;12.10;1.00;;;;;;5052955;28;20458;-65
2023/03/31 12:55:36;;;;;;;7.53;2.83;;;12.00;1.00;;;;;;5052864;28;20463;-65
2023/03/31 12:58:41;;;;;;;6.60;2.43;;;12.00;1.00;;;;;;5051156;28;20912;-65
2023/03/31 13:01:16;;;;;;;7.73;3.17;;;12.10;1.00;;;;;;5052117;28;20461;-64
2023/03/31 13:04:07;;;;;;;8.50;3.30;;;12.20;1.00;;;;;;5052502;28;20458;-64
2023/03/31 13:06:55;;;;;;;5.90;3.27;;;12.60;1.00;;;;;;5053220;28;20458;-63
2023/03/31 13:09:43;;;;;;;8.20;3.80;;;13.00;1.00;;;;;;5052426;28;20797;-63
2023/03/31 13:12:15;;;;;;;8.50;3.43;;;13.30;1.00;;;;;;5054531;28;20531;-63
2023/03/31 13:14:44;;;;;;;10.03;5.97;;;13.40;1.00;;;;;;5052941;28;20952;-62
2023/03/31 13:17:20;;;;;;;10.20;5.50;;;13.30;1.00;;;;;;5056661;28;20497;-62
2023/03/31 13:19:48;;;;;;;8.20;6.03;;;13.10;1.00;;;;;;5055489;28;20465;-65